Time;durP1;ratioP1;P1;durP2;ratioP2;P2;SDS_P1;SDS_P2;PMS_P1;PMS_P2;Temp;Humidity;BMP_temperature;BMP_pressure;BME280_temperature;BME280_humidity;BME280_pressure;Samples;Min_cycle;Max_cycle;Signal;HPM_P1;HPM_P2
2022/03/25 00:01:06;;;;;;;17.10;11.80;;;9.80;75.40;;;;;;5030195;28;20211;-81
2022/03/25 00:03:33;;;;;;;18.00;10.87;;;9.80;74.80;;;;;;5030181;28;20655;-81
2022/03/25 00:06:01;;;;;;;17.50;11.27;;;9.80;74.60;;;;;;5029939;28;20255;-81
2022/03/25 00:08:29;;;;;;;17.47;10.97;;;9.70;74.70;;;;;;5029485;28;20749;-81
2022/03/25 00:10:56;;;;;;;16.60;11.60;;;9.80;75.00;;;;;;5030185;28;20258;-81
2022/03/25 00:13:22;;;;;;;16.80;11.73;;;9.80;75.20;;;;;;5029426;28;20240;-81
2022/03/25 00:15:49;;;;;;;16.07;10.87;;;9.80;75.40;;;;;;5029550;28;20270;-82
2022/03/25 00:18:16;;;;;;;15.77;11.23;;;9.70;75.50;;;;;;5029476;28;20204;-82
2022/03/25 00:20:44;;;;;;;16.17;11.10;;;9.60;75.50;;;;;;5030243;28;20253;-86
2022/03/25 00:23:12;;;;;;;16.30;11.33;;;9.60;75.40;;;;;;5040617;28;20212;-83
2022/03/25 00:25:39;;;;;;;16.90;11.37;;;9.50;75.50;;;;;;5049739;28;20694;-78
2022/03/25 00:28:06;;;;;;;14.77;11.00;;;9.50;75.90;;;;;;5049601;28;20250;-77
2022/03/25 00:30:32;;;;;;;18.33;11.00;;;9.40;76.40;;;;;;5048928;28;20208;-78
2022/03/25 00:32:59;;;;;;;20.20;11.87;;;9.50;76.60;;;;;;5049399;28;20208;-77
2022/03/25 00:35:26;;;;;;;15.63;11.10;;;9.40;77.10;;;;;;5049252;28;20234;-77
2022/03/25 00:37:53;;;;;;;16.37;10.83;;;9.50;77.30;;;;;;5048778;28;20649;-77
2022/03/25 00:40:21;;;;;;;19.37;11.83;;;9.40;77.50;;;;;;5028970;28;20208;-77
2022/03/25 00:42:48;;;;;;;19.33;11.13;;;9.40;77.90;;;;;;5029178;28;20208;-77
2022/03/25 00:45:15;;;;;;;16.73;11.60;;;9.30;78.50;;;;;;5029007;28;20235;-77
2022/03/25 00:47:42;;;;;;;18.07;11.73;;;9.20;78.20;;;;;;5029466;28;20208;-77
2022/03/25 00:50:09;;;;;;;16.40;11.77;;;9.30;77.90;;;;;;5029290;28;20296;-77
2022/03/25 00:52:36;;;;;;;18.53;11.77;;;9.30;77.80;;;;;;5022962;28;20233;-77
2022/03/25 00:55:03;;;;;;;15.93;11.80;;;9.20;78.00;;;;;;5020122;28;20212;-84
2022/03/25 00:57:31;;;;;;;17.67;12.00;;;9.10;78.30;;;;;;5029477;28;20259;-83
2022/03/25 00:59:58;;;;;;;16.13;11.30;;;9.10;78.80;;;;;;5029291;28;20205;-85
2022/03/25 01:02:25;;;;;;;14.53;10.80;;;9.10;78.90;;;;;;5029188;28;20205;-85
2022/03/25 01:04:52;;;;;;;18.10;11.53;;;9.10;79.90;;;;;;5029290;28;20232;-79
2022/03/25 01:07:18;;;;;;;17.30;11.53;;;9.10;81.10;;;;;;5028491;28;20749;-79
2022/03/25 01:09:45;;;;;;;14.73;10.83;;;9.10;82.00;;;;;;5028630;28;20248;-79
2022/03/25 01:12:12;;;;;;;17.60;11.33;;;9.10;82.70;;;;;;5028671;28;20216;-79
2022/03/25 01:14:40;;;;;;;18.47;11.40;;;9.00;83.70;;;;;;5028371;28;20243;-78
2022/03/25 01:17:07;;;;;;;15.63;11.80;;;9.00;83.60;;;;;;5028590;28;20209;-80
2022/03/25 01:19:34;;;;;;;13.70;11.07;;;8.90;83.70;;;;;;5028310;28;20225;-81
2022/03/25 01:22:03;;;;;;;15.17;11.53;;;8.80;82.50;;;;;;5028761;28;20668;-81
2022/03/25 01:24:30;;;;;;;17.03;11.67;;;8.80;81.90;;;;;;5048716;28;20219;-81
2022/03/25 01:26:57;;;;;;;15.13;11.47;;;8.80;81.60;;;;;;5032447;28;20208;-81
2022/03/25 01:29:24;;;;;;;16.47;11.37;;;8.70;81.80;;;;;;5028119;28;20201;-81
2022/03/25 01:31:52;;;;;;;18.03;11.50;;;8.70;82.00;;;;;;5028565;28;20208;-81
2022/03/25 01:34:18;;;;;;;16.80;12.13;;;8.70;81.60;;;;;;5030246;28;20612;-80
2022/03/25 01:36:45;;;;;;;16.37;10.97;;;8.70;81.70;;;;;;5048439;28;20262;-84
2022/03/25 01:39:11;;;;;;;15.90;11.33;;;8.60;81.50;;;;;;5049317;28;20230;-82
2022/03/25 01:41:38;;;;;;;14.70;11.20;;;8.40;81.40;;;;;;5041630;28;20231;-83
2022/03/25 01:44:08;;;;;;;19.37;10.70;;;8.40;82.00;;;;;;5029208;28;20208;-82
2022/03/25 01:46:36;;;;;;;14.50;10.07;;;8.20;82.20;;;;;;5029268;28;20237;-83
2022/03/25 01:49:05;;;;;;;14.53;10.27;;;8.20;82.70;;;;;;5029203;28;20660;-82
2022/03/25 01:51:35;;;;;;;13.23;10.67;;;8.20;82.60;;;;;;5029148;28;20204;-82
2022/03/25 01:54:03;;;;;;;13.50;10.47;;;8.20;82.10;;;;;;5029022;28;20197;-82
2022/03/25 01:56:29;;;;;;;15.57;10.37;;;8.10;81.50;;;;;;5029134;28;20212;-83
2022/03/25 01:58:56;;;;;;;12.70;9.37;;;8.10;81.90;;;;;;5029107;28;20212;-82
2022/03/25 02:01:25;;;;;;;13.17;10.50;;;8.10;81.50;;;;;;5029744;28;20216;-82
2022/03/25 02:03:51;;;;;;;13.47;10.10;;;8.20;82.10;;;;;;5033080;28;20706;-82
2022/03/25 02:06:19;;;;;;;13.53;10.20;;;8.20;82.30;;;;;;5032550;28;20240;-80
2022/03/25 02:08:46;;;;;;;12.13;9.53;;;8.10;80.60;;;;;;5032250;28;20262;-80
2022/03/25 02:11:13;;;;;;;14.73;9.83;;;8.10;80.50;;;;;;5032138;28;20204;-79
2022/03/25 02:13:40;;;;;;;14.03;10.03;;;8.20;80.00;;;;;;5030296;28;20236;-79
2022/03/25 02:16:07;;;;;;;17.30;10.10;;;8.20;80.30;;;;;;5016998;28;20655;-79
2022/03/25 02:18:34;;;;;;;12.83;9.63;;;8.10;79.30;;;;;;5031544;28;20648;-79
2022/03/25 02:21:00;;;;;;;12.00;9.43;;;8.00;79.60;;;;;;5032332;28;20205;-79
2022/03/25 02:23:28;;;;;;;13.17;9.90;;;7.90;80.00;;;;;;5029765;28;20713;-79
2022/03/25 02:25:56;;;;;;;15.00;9.50;;;7.90;80.30;;;;;;5031844;28;20232;-79
2022/03/25 02:28:24;;;;;;;16.07;10.20;;;7.80;80.30;;;;;;5032018;28;20208;-79
2022/03/25 02:30:51;;;;;;;14.93;10.07;;;7.80;80.00;;;;;;5035922;28;20204;-78
2022/03/25 02:33:18;;;;;;;17.17;9.63;;;7.80;80.40;;;;;;5043410;28;20300;-79
2022/03/25 02:35:46;;;;;;;16.53;9.43;;;7.60;80.90;;;;;;5032067;28;20221;-81
2022/03/25 02:38:18;;;;;;;13.27;10.03;;;7.60;80.70;;;;;;5031510;28;20208;-82
2022/03/25 02:40:46;;;;;;;14.20;9.80;;;7.50;81.30;;;;;;5032375;28;20557;-81
2022/03/25 02:43:14;;;;;;;12.63;9.63;;;7.50;81.50;;;;;;5031275;28;20743;-82
2022/03/25 02:45:41;;;;;;;13.23;9.20;;;7.60;81.30;;;;;;5031316;28;20228;-77
2022/03/25 02:48:09;;;;;;;12.90;9.87;;;7.60;81.10;;;;;;5031252;28;20553;-77
2022/03/25 02:50:36;;;;;;;13.97;9.60;;;7.60;80.70;;;;;;5031549;28;20216;-79
2022/03/25 02:53:03;;;;;;;15.63;9.73;;;7.50;80.60;;;;;;5021426;28;20210;-78
2022/03/25 02:55:30;;;;;;;17.13;9.70;;;7.50;80.90;;;;;;5011521;28;20217;-78
2022/03/25 02:57:58;;;;;;;12.97;9.17;;;7.50;80.90;;;;;;5011620;28;20260;-78
2022/03/25 03:00:26;;;;;;;14.93;9.83;;;7.40;80.90;;;;;;5011286;28;20624;-79
2022/03/25 03:02:54;;;;;;;13.70;9.00;;;7.40;80.90;;;;;;5027150;28;20231;-78
2022/03/25 03:05:21;;;;;;;13.40;9.43;;;7.40;80.90;;;;;;5031106;28;20328;-83
2022/03/25 03:07:48;;;;;;;11.93;8.97;;;7.30;80.80;;;;;;5031503;28;20618;-82
2022/03/25 03:10:15;;;;;;;13.67;9.53;;;7.30;80.80;;;;;;5032827;28;20209;-81
2022/03/25 03:12:42;;;;;;;13.63;9.73;;;7.30;80.30;;;;;;5033081;28;20633;-82
2022/03/25 03:15:12;;;;;;;13.07;9.80;;;7.40;80.50;;;;;;5033333;28;20211;-82
2022/03/25 03:17:40;;;;;;;12.33;9.33;;;7.40;80.50;;;;;;5033349;28;20253;-81
2022/03/25 03:20:07;;;;;;;12.63;9.37;;;7.20;80.60;;;;;;5031905;28;20286;-77
2022/03/25 03:22:34;;;;;;;12.60;8.57;;;7.20;81.00;;;;;;5034302;28;20204;-79
2022/03/25 03:25:01;;;;;;;11.80;8.93;;;7.30;81.00;;;;;;5050602;28;20589;-79
2022/03/25 03:27:29;;;;;;;13.40;9.30;;;7.20;81.10;;;;;;5043197;28;20208;-78
2022/03/25 03:29:55;;;;;;;13.30;9.60;;;7.30;81.40;;;;;;5030521;28;20251;-79
2022/03/25 03:32:25;;;;;;;13.07;9.40;;;7.30;81.80;;;;;;5030773;28;20209;-80
2022/03/25 03:34:53;;;;;;;11.57;9.17;;;7.30;81.60;;;;;;5030559;28;20201;-79
2022/03/25 03:37:19;;;;;;;14.60;9.37;;;7.20;82.30;;;;;;5030191;28;20679;-79
2022/03/25 03:39:46;;;;;;;14.03;9.33;;;7.20;82.80;;;;;;5030512;28;20215;-80
2022/03/25 03:42:14;;;;;;;14.87;9.47;;;7.10;82.80;;;;;;5030461;28;20237;-80
2022/03/25 03:44:40;;;;;;;13.47;9.80;;;7.00;83.10;;;;;;5030332;28;20201;-79
2022/03/25 03:47:09;;;;;;;14.77;9.73;;;6.90;84.40;;;;;;5030441;28;20278;-80
2022/03/25 03:49:37;;;;;;;13.27;9.93;;;7.00;84.40;;;;;;5030623;28;20201;-80
2022/03/25 03:52:05;;;;;;;12.90;9.43;;;7.10;84.20;;;;;;5028589;28;20263;-80
2022/03/25 03:54:32;;;;;;;14.00;9.17;;;7.00;83.80;;;;;;5010132;28;20668;-80
2022/03/25 03:56:59;;;;;;;13.00;9.33;;;7.00;84.50;;;;;;5010493;28;20216;-80
2022/03/25 03:59:25;;;;;;;13.97;9.47;;;7.00;84.20;;;;;;5027702;28;20209;-80
2022/03/25 04:01:52;;;;;;;14.40;9.57;;;7.10;84.30;;;;;;5030272;28;21042;-79
2022/03/25 04:04:19;;;;;;;14.43;9.63;;;7.00;83.40;;;;;;5029063;28;20663;-80
2022/03/25 04:06:47;;;;;;;17.00;9.87;;;6.70;83.80;;;;;;5029469;28;20274;-78
2022/03/25 04:09:13;;;;;;;16.97;10.37;;;6.70;84.10;;;;;;5029037;28;20215;-79
2022/03/25 04:11:40;;;;;;;11.43;9.17;;;6.70;84.50;;;;;;5029641;28;20251;-79
2022/03/25 04:14:07;;;;;;;10.43;8.67;;;6.70;84.40;;;;;;5021635;28;20229;-80
2022/03/25 04:16:34;;;;;;;15.17;8.80;;;6.70;84.60;;;;;;5027525;28;20212;-80
2022/03/25 04:19:00;;;;;;;11.07;8.60;;;6.60;84.60;;;;;;5027039;28;20240;-80
2022/03/25 04:21:27;;;;;;;13.23;9.87;;;6.70;84.40;;;;;;5027105;28;20212;-80
2022/03/25 04:23:58;;;;;;;14.10;9.00;;;6.80;84.50;;;;;;5032259;28;20231;-74
2022/03/25 04:26:25;;;;;;;13.03;9.30;;;6.70;84.50;;;;;;5027887;28;20298;-75
2022/03/25 04:28:51;;;;;;;12.33;9.27;;;6.80;84.60;;;;;;5027505;28;20568;-74
2022/03/25 04:31:18;;;;;;;15.23;10.10;;;6.90;85.10;;;;;;5027137;28;20204;-79
2022/03/25 04:33:45;;;;;;;13.27;9.33;;;6.90;85.40;;;;;;5027222;28;20259;-78
2022/03/25 04:36:11;;;;;;;12.07;9.20;;;6.90;85.70;;;;;;5027014;28;20205;-78
2022/03/25 04:38:38;;;;;;;13.33;9.53;;;6.80;85.50;;;;;;5027680;28;20209;-79
2022/03/25 04:41:10;;;;;;;13.77;9.23;;;6.80;85.60;;;;;;5027334;28;20213;-78
2022/03/25 04:43:37;;;;;;;12.33;9.00;;;6.70;85.60;;;;;;5027189;28;20215;-79
2022/03/25 04:46:08;;;;;;;12.67;9.53;;;6.70;85.20;;;;;;5026735;28;20287;-78
2022/03/25 04:48:35;;;;;;;11.97;9.10;;;6.60;85.10;;;;;;5027083;28;20216;-79
2022/03/25 04:51:02;;;;;;;12.83;9.70;;;6.60;85.30;;;;;;5026919;28;20718;-79
2022/03/25 04:53:33;;;;;;;14.10;9.03;;;6.60;87.10;;;;;;5026302;28;20223;-79
2022/03/25 04:55:59;;;;;;;12.10;9.07;;;6.60;85.90;;;;;;5026251;28;20270;-80
2022/03/25 04:58:28;;;;;;;12.90;9.23;;;6.50;85.70;;;;;;5025251;28;20205;-79
2022/03/25 05:00:54;;;;;;;14.60;8.80;;;6.50;85.90;;;;;;5026720;28;20260;-79
2022/03/25 05:03:21;;;;;;;13.87;9.83;;;6.50;85.90;;;;;;5027170;28;20205;-78
2022/03/25 05:05:48;;;;;;;14.87;8.87;;;6.60;85.60;;;;;;5027328;28;20557;-77
2022/03/25 05:08:15;;;;;;;12.57;9.37;;;6.50;85.60;;;;;;5026753;28;20255;-78
2022/03/25 05:10:42;;;;;;;11.70;8.90;;;6.50;85.70;;;;;;5026005;28;20258;-77
2022/03/25 05:13:09;;;;;;;16.17;9.73;;;6.50;85.90;;;;;;5027152;28;20225;-78
2022/03/25 05:15:37;;;;;;;15.47;9.23;;;6.40;85.70;;;;;;5027514;28;20288;-78
2022/03/25 05:18:05;;;;;;;10.83;8.80;;;6.40;85.80;;;;;;5025434;28;20609;-77
2022/03/25 05:20:32;;;;;;;12.10;9.00;;;6.50;86.10;;;;;;5028851;28;20213;-77
2022/03/25 05:22:59;;;;;;;13.40;9.00;;;6.50;86.30;;;;;;5030047;28;20200;-78
2022/03/25 05:25:25;;;;;;;12.90;8.70;;;6.40;86.50;;;;;;5027476;28;20606;-78
2022/03/25 05:27:57;;;;;;;14.10;9.50;;;6.40;87.00;;;;;;5027571;28;20232;-78
2022/03/25 05:30:25;;;;;;;14.77;9.80;;;6.40;87.00;;;;;;5024983;28;20243;-78
2022/03/25 05:32:55;;;;;;;13.23;9.57;;;6.40;86.90;;;;;;5027396;28;20196;-78
2022/03/25 05:35:22;;;;;;;15.20;10.07;;;6.50;86.70;;;;;;5026508;28;20631;-78
2022/03/25 05:37:49;;;;;;;12.60;9.30;;;6.50;87.20;;;;;;5026529;28;20205;-78
2022/03/25 05:40:16;;;;;;;14.63;10.20;;;6.60;87.00;;;;;;5027364;28;20414;-78
2022/03/25 05:42:43;;;;;;;12.97;8.97;;;6.60;86.60;;;;;;5024620;28;20225;-78
2022/03/25 05:45:10;;;;;;;15.73;10.07;;;6.60;86.60;;;;;;5026770;28;20205;-78
2022/03/25 05:47:39;;;;;;;14.63;9.87;;;6.70;86.40;;;;;;5027441;28;20284;-78
2022/03/25 05:50:11;;;;;;;12.73;9.90;;;6.70;86.40;;;;;;5027078;28;20236;-78
2022/03/25 05:52:38;;;;;;;16.23;11.43;;;6.70;86.60;;;;;;5026045;28;20225;-78
2022/03/25 05:55:06;;;;;;;17.37;10.73;;;6.70;87.20;;;;;;5027290;28;20203;-78
2022/03/25 05:57:32;;;;;;;13.20;9.77;;;6.70;87.30;;;;;;5025801;28;20209;-78
2022/03/25 05:59:59;;;;;;;15.20;11.07;;;6.60;87.40;;;;;;5026376;28;20290;-78
2022/03/25 06:02:26;;;;;;;18.37;10.80;;;6.70;87.60;;;;;;5026742;28;20204;-76
2022/03/25 06:04:53;;;;;;;16.20;10.23;;;6.70;87.60;;;;;;5026913;28;20250;-76
2022/03/25 06:07:20;;;;;;;14.73;10.37;;;6.80;87.40;;;;;;5026402;28;20251;-76
2022/03/25 06:09:47;;;;;;;16.33;10.27;;;6.80;87.90;;;;;;5024724;28;20197;-78
2022/03/25 06:12:14;;;;;;;15.03;10.60;;;6.90;87.90;;;;;;5026373;28;20224;-80
2022/03/25 06:14:41;;;;;;;15.57;10.83;;;7.00;87.90;;;;;;5026254;28;20208;-78
2022/03/25 06:17:08;;;;;;;13.67;9.93;;;7.00;87.90;;;;;;5041517;28;20215;-81
2022/03/25 06:19:35;;;;;;;15.30;10.33;;;7.00;88.00;;;;;;5038038;28;20236;-78
2022/03/25 06:22:04;;;;;;;14.43;10.37;;;7.00;88.30;;;;;;5027211;28;20629;-78
2022/03/25 06:24:33;;;;;;;15.20;9.47;;;7.10;89.80;;;;;;5026900;28;20212;-78
2022/03/25 06:27:00;;;;;;;14.90;10.37;;;7.20;90.10;;;;;;5026765;28;20235;-77
2022/03/25 06:29:27;;;;;;;16.10;10.53;;;7.30;89.80;;;;;;5026515;28;20255;-78
2022/03/25 06:31:57;;;;;;;14.83;10.83;;;7.40;89.60;;;;;;5027091;28;20255;-77
2022/03/25 06:34:23;;;;;;;14.80;10.73;;;7.50;89.50;;;;;;5026816;28;20292;-78
2022/03/25 06:36:50;;;;;;;16.90;10.13;;;7.50;89.10;;;;;;5027177;28;20216;-77
2022/03/25 06:39:17;;;;;;;16.07;10.73;;;7.60;88.30;;;;;;5026753;28;20205;-78
2022/03/25 06:41:45;;;;;;;16.10;10.40;;;7.70;88.10;;;;;;5025863;28;20204;-77
2022/03/25 06:44:12;;;;;;;17.23;11.50;;;7.80;87.70;;;;;;5026248;28;20217;-78
2022/03/25 06:46:39;;;;;;;15.63;11.87;;;7.90;87.10;;;;;;5025985;28;20708;-78
2022/03/25 06:49:06;;;;;;;16.27;11.23;;;7.90;86.50;;;;;;5029638;28;20748;-78
2022/03/25 06:51:34;;;;;;;17.93;11.20;;;7.80;86.60;;;;;;5030212;28;20617;-77
2022/03/25 06:54:01;;;;;;;16.47;9.97;;;7.80;86.80;;;;;;5028073;28;20201;-77
2022/03/25 06:56:28;;;;;;;17.97;11.57;;;7.80;86.70;;;;;;5030595;28;20369;-77
2022/03/25 06:58:57;;;;;;;16.70;10.73;;;7.70;86.90;;;;;;5029377;28;20212;-77
2022/03/25 07:01:24;;;;;;;17.13;11.17;;;7.70;87.00;;;;;;5030283;28;20205;-77
2022/03/25 07:03:51;;;;;;;18.07;11.73;;;7.70;87.80;;;;;;5030049;28;20204;-77
2022/03/25 07:06:23;;;;;;;20.57;11.37;;;7.70;87.60;;;;;;5030240;28;20258;-77
2022/03/25 07:08:53;;;;;;;15.67;10.87;;;7.80;87.50;;;;;;5029964;28;20592;-75
2022/03/25 07:11:21;;;;;;;15.43;10.50;;;7.80;87.40;;;;;;5030002;28;20259;-75
2022/03/25 07:13:48;;;;;;;18.67;11.23;;;8.00;87.50;;;;;;5029058;28;20276;-76
2022/03/25 07:16:17;;;;;;;13.90;10.60;;;8.00;87.90;;;;;;5029521;28;20205;-76
2022/03/25 07:18:44;;;;;;;17.63;10.80;;;8.10;87.50;;;;;;5029231;28;20237;-77
2022/03/25 07:21:11;;;;;;;15.93;10.63;;;8.20;86.90;;;;;;5029539;28;20251;-76
2022/03/25 07:23:38;;;;;;;16.10;10.43;;;8.40;86.50;;;;;;5031495;28;20959;-77
2022/03/25 07:26:07;;;;;;;16.93;11.03;;;8.30;86.30;;;;;;5029449;28;20197;-77
2022/03/25 07:28:35;;;;;;;14.93;10.13;;;8.40;86.50;;;;;;5029103;28;20759;-76
2022/03/25 07:31:04;;;;;;;15.83;9.93;;;8.40;85.80;;;;;;5028715;28;20232;-77
2022/03/25 07:33:33;;;;;;;17.47;10.60;;;8.50;85.50;;;;;;5029577;28;20197;-76
2022/03/25 07:36:00;;;;;;;16.97;10.60;;;8.60;85.20;;;;;;5029520;28;20224;-77
2022/03/25 07:38:27;;;;;;;16.90;10.47;;;8.80;85.10;;;;;;5029110;28;20600;-76
2022/03/25 07:40:54;;;;;;;15.03;9.70;;;8.90;85.20;;;;;;5028943;28;20201;-76
2022/03/25 07:43:20;;;;;;;18.20;10.47;;;9.00;84.90;;;;;;5028716;28;20197;-76
2022/03/25 07:45:47;;;;;;;15.93;10.27;;;9.00;83.80;;;;;;5028959;28;20209;-77
2022/03/25 07:48:14;;;;;;;14.30;9.90;;;9.10;83.60;;;;;;5028766;28;20726;-76
2022/03/25 07:50:42;;;;;;;15.97;9.93;;;9.20;83.50;;;;;;5029377;28;20209;-77
2022/03/25 07:53:10;;;;;;;15.07;10.03;;;9.20;82.50;;;;;;5028211;28;20711;-76
2022/03/25 07:55:36;;;;;;;17.53;10.50;;;9.30;82.60;;;;;;5028846;28;20199;-76
2022/03/25 07:58:03;;;;;;;15.60;10.77;;;9.40;82.70;;;;;;5025531;28;20665;-76
2022/03/25 08:00:30;;;;;;;15.63;10.23;;;9.60;83.90;;;;;;5027129;28;20675;-77
2022/03/25 08:02:56;;;;;;;14.20;10.20;;;9.60;83.90;;;;;;5028542;28;20697;-76
2022/03/25 08:05:24;;;;;;;14.73;9.87;;;9.70;86.80;;;;;;5026005;28;20578;-79
2022/03/25 08:07:54;;;;;;;14.63;10.43;;;9.80;87.10;;;;;;5028434;28;20228;-79
2022/03/25 08:10:23;;;;;;;16.30;10.27;;;9.90;87.20;;;;;;5028300;28;20277;-79
2022/03/25 08:12:50;;;;;;;19.47;10.97;;;10.00;81.70;;;;;;5028036;28;20267;-79
2022/03/25 08:15:18;;;;;;;15.27;9.23;;;10.00;80.70;;;;;;5028469;28;20220;-80
2022/03/25 08:17:49;;;;;;;21.97;10.70;;;10.00;80.00;;;;;;5025690;28;20737;-79
2022/03/25 08:20:24;;;;;;;15.60;10.07;;;10.10;80.20;;;;;;5028102;28;20228;-79
2022/03/25 08:22:53;;;;;;;16.70;10.47;;;10.30;81.50;;;;;;5026247;28;20602;-79
2022/03/25 08:28:05;;;;;;;18.47;9.27;;;10.50;81.40;;;;;;5028694;28;20315;-75
2022/03/25 08:30:33;;;;;;;16.83;10.20;;;10.50;80.30;;;;;;5027991;28;20704;-79
2022/03/25 08:33:00;;;;;;;14.50;10.00;;;10.60;80.20;;;;;;5028736;28;20205;-79
2022/03/25 08:35:27;;;;;;;19.30;10.43;;;10.80;79.80;;;;;;5028096;28;20212;-79
2022/03/25 08:37:56;;;;;;;16.30;10.20;;;10.80;78.40;;;;;;5028319;28;20205;-79
2022/03/25 08:40:23;;;;;;;17.33;9.67;;;11.00;78.00;;;;;;5027799;28;20212;-79
2022/03/25 08:42:50;;;;;;;17.87;11.00;;;11.10;78.60;;;;;;5028045;28;20219;-79
2022/03/25 08:45:17;;;;;;;18.83;11.03;;;11.20;78.80;;;;;;5027720;28;20208;-79
2022/03/25 08:47:44;;;;;;;18.53;10.70;;;11.20;79.40;;;;;;5027741;28;20256;-79
2022/03/25 08:50:12;;;;;;;17.47;10.80;;;11.30;79.50;;;;;;5027491;28;20197;-79
2022/03/25 08:52:40;;;;;;;20.50;11.97;;;11.50;80.40;;;;;;5027429;28;20212;-79
2022/03/25 08:55:09;;;;;;;18.03;11.20;;;11.50;80.10;;;;;;5027850;28;20627;-80
2022/03/25 08:57:36;;;;;;;21.40;11.57;;;11.60;80.60;;;;;;5027777;28;20231;-80
2022/03/25 09:00:05;;;;;;;17.53;11.07;;;11.80;81.50;;;;;;5027998;28;20201;-79
2022/03/25 09:02:32;;;;;;;19.60;11.93;;;11.90;81.30;;;;;;5027886;28;20258;-79
2022/03/25 09:04:59;;;;;;;19.63;12.03;;;12.00;81.20;;;;;;5028239;28;20686;-80
2022/03/25 09:07:25;;;;;;;18.07;11.37;;;12.10;82.00;;;;;;5027409;28;20232;-80
2022/03/25 09:09:52;;;;;;;20.77;11.93;;;12.20;82.00;;;;;;5027366;28;20267;-79
2022/03/25 09:12:20;;;;;;;19.60;12.33;;;12.20;82.60;;;;;;5027369;28;20233;-80
2022/03/25 09:14:47;;;;;;;22.50;12.00;;;12.40;82.20;;;;;;5027112;28;20901;-80
2022/03/25 09:17:14;;;;;;;18.83;11.43;;;12.50;81.90;;;;;;5027206;28;20689;-80
2022/03/25 09:19:41;;;;;;;21.70;12.70;;;12.50;82.20;;;;;;5026902;28;20236;-80
2022/03/25 09:22:08;;;;;;;21.93;13.43;;;12.60;82.80;;;;;;5028297;28;20208;-79
2022/03/25 09:24:35;;;;;;;24.13;13.80;;;12.80;82.80;;;;;;5027539;28;20251;-79
2022/03/25 09:27:01;;;;;;;20.53;11.90;;;12.90;82.50;;;;;;5027415;28;20208;-79
2022/03/25 09:29:29;;;;;;;20.30;12.30;;;13.00;83.10;;;;;;5027385;28;20271;-79
2022/03/25 09:31:56;;;;;;;21.50;12.17;;;13.20;82.60;;;;;;5027657;28;20197;-79
2022/03/25 09:37:07;;;;;;;20.80;13.10;;;13.30;82.00;;;;;;5020684;28;20307;-80
2022/03/25 09:39:34;;;;;;;23.17;13.93;;;13.40;82.50;;;;;;5027102;28;20615;-80
2022/03/25 09:42:01;;;;;;;22.73;13.37;;;13.50;81.30;;;;;;5026161;28;20411;-79
2022/03/25 09:44:30;;;;;;;24.57;14.77;;;13.50;81.50;;;;;;5026548;28;20294;-79
2022/03/25 09:46:56;;;;;;;22.03;12.77;;;13.60;81.80;;;;;;5026439;28;20642;-76
2022/03/25 09:49:23;;;;;;;23.10;14.40;;;13.80;82.00;;;;;;5026387;28;20229;-76
2022/03/25 09:51:50;;;;;;;25.10;14.70;;;13.90;83.00;;;;;;5026755;28;20271;-76
2022/03/25 09:54:18;;;;;;;23.90;14.07;;;13.90;81.80;;;;;;5026504;28;20266;-80
2022/03/25 09:56:45;;;;;;;37.67;14.50;;;13.90;82.00;;;;;;5026649;28;20213;-79
2022/03/25 09:59:16;;;;;;;22.77;14.00;;;14.00;81.90;;;;;;5026687;28;20208;-79
2022/03/25 10:01:45;;;;;;;25.47;14.40;;;14.00;82.20;;;;;;5025113;28;20243;-79
2022/03/25 10:04:36;;;;;;;27.03;15.73;;;14.20;81.90;;;;;;5027050;28;20207;-79
2022/03/25 10:07:15;;;;;;;23.03;14.50;;;14.30;81.30;;;;;;5026741;28;20196;-79
2022/03/25 10:09:41;;;;;;;21.07;13.20;;;14.30;81.20;;;;;;5025146;28;20201;-79
2022/03/25 10:12:23;;;;;;;27.57;16.33;;;14.40;82.20;;;;;;5027204;28;20773;-79
2022/03/25 10:14:51;;;;;;;20.97;13.30;;;14.50;81.00;;;;;;5025905;28;20197;-79
2022/03/25 10:17:19;;;;;;;25.63;15.27;;;14.50;81.30;;;;;;5026817;28;20204;-80
2022/03/25 10:19:53;;;;;;;24.40;14.80;;;14.70;81.20;;;;;;5026354;28;20312;-79
2022/03/25 10:22:20;;;;;;;23.57;14.50;;;14.80;81.50;;;;;;5027587;28;20295;-79
2022/03/25 10:24:49;;;;;;;27.17;16.73;;;15.00;80.90;;;;;;5031375;28;20201;-79
2022/03/25 10:27:22;;;;;;;32.43;15.83;;;14.90;80.30;;;;;;5030526;28;20287;-79
2022/03/25 10:29:50;;;;;;;25.03;14.67;;;14.90;81.60;;;;;;5030958;28;20561;-79
2022/03/25 10:32:20;;;;;;;23.83;14.77;;;15.10;81.70;;;;;;5030962;28;20220;-79
2022/03/25 10:35:02;;;;;;;23.90;14.53;;;15.30;81.70;;;;;;5030444;28;20272;-79
2022/03/25 10:37:29;;;;;;;25.53;15.60;;;15.30;80.40;;;;;;5029150;28;20201;-79
2022/03/25 10:39:56;;;;;;;25.83;15.20;;;15.40;80.50;;;;;;5030619;28;20216;-80
2022/03/25 10:42:23;;;;;;;29.50;17.07;;;15.50;80.80;;;;;;5030447;28;20621;-81
2022/03/25 10:44:49;;;;;;;29.80;16.80;;;15.50;80.70;;;;;;5030467;28;20258;-81
2022/03/25 10:47:28;;;;;;;24.20;15.43;;;15.60;80.10;;;;;;5030300;28;20251;-82
2022/03/25 10:50:11;;;;;;;23.40;14.30;;;15.50;79.70;;;;;;5030362;28;20292;-81
2022/03/25 10:52:38;;;;;;;25.63;15.43;;;15.70;80.60;;;;;;5030183;28;20196;-78
2022/03/25 10:55:19;;;;;;;25.17;14.97;;;15.70;80.00;;;;;;5029997;28;20224;-78
2022/03/25 10:57:50;;;;;;;27.03;15.07;;;15.80;80.20;;;;;;5028580;28;20212;-78
2022/03/25 11:00:17;;;;;;;26.67;16.23;;;15.90;80.70;;;;;;5027759;28;20208;-81
2022/03/25 11:02:45;;;;;;;24.27;14.10;;;15.90;79.60;;;;;;5029435;28;20205;-81
2022/03/25 11:05:13;;;;;;;23.87;14.10;;;16.10;81.20;;;;;;5029953;28;20213;-81
2022/03/25 11:07:43;;;;;;;27.17;16.30;;;16.20;79.20;;;;;;5030473;28;20209;-82
2022/03/25 11:10:12;;;;;;;25.73;15.30;;;16.20;78.80;;;;;;5029872;28;20383;-76
2022/03/25 11:12:44;;;;;;;23.53;14.70;;;16.10;78.10;;;;;;5027491;28;20637;-81
2022/03/25 11:15:12;;;;;;;22.77;14.90;;;16.20;79.30;;;;;;5029716;28;20816;-81
2022/03/25 11:17:41;;;;;;;23.83;14.87;;;16.30;79.00;;;;;;5027282;28;20291;-81
2022/03/25 11:20:11;;;;;;;26.73;15.43;;;16.30;79.70;;;;;;5029076;28;20232;-81
2022/03/25 11:22:46;;;;;;;24.43;15.40;;;16.40;79.00;;;;;;5029056;28;20291;-81
2022/03/25 11:25:16;;;;;;;24.87;14.47;;;16.40;79.20;;;;;;5029566;28;20200;-80
2022/03/25 11:27:48;;;;;;;24.70;15.07;;;16.60;78.90;;;;;;5029356;28;20193;-81
2022/03/25 11:30:16;;;;;;;20.53;13.63;;;16.80;79.60;;;;;;5029241;28;20193;-83
2022/03/25 11:32:48;;;;;;;22.13;12.73;;;16.90;78.90;;;;;;5029030;28;20575;-83
2022/03/25 11:35:21;;;;;;;21.93;13.07;;;17.10;77.90;;;;;;5027830;28;20205;-83
2022/03/25 11:37:48;;;;;;;23.23;13.77;;;17.10;78.00;;;;;;5029449;28;20324;-82
2022/03/25 11:40:28;;;;;;;22.80;12.20;;;17.20;77.70;;;;;;5028929;28;20201;-82
2022/03/25 11:42:57;;;;;;;18.27;10.83;;;17.20;77.30;;;;;;5029331;28;20270;-82
2022/03/25 11:45:35;;;;;;;19.20;12.93;;;17.30;77.00;;;;;;5028861;28;20291;-83
2022/03/25 11:48:34;;;;;;;17.57;11.07;;;17.30;75.70;;;;;;5027533;28;20227;-82
2022/03/25 11:51:22;;;;;;;18.53;11.87;;;17.40;76.20;;;;;;5028332;28;20295;-82
2022/03/25 11:53:49;;;;;;;11.80;8.23;;;17.50;76.20;;;;;;5027454;28;20209;-82
2022/03/25 11:56:16;;;;;;;10.87;6.93;;;17.70;76.50;;;;;;5028008;28;20209;-82
2022/03/25 11:58:58;;;;;;;9.60;7.00;;;17.90;76.80;;;;;;5029222;28;20291;-82
2022/03/25 12:01:26;;;;;;;14.93;9.33;;;17.80;75.60;;;;;;5027162;28;20274;-82
2022/03/25 12:03:55;;;;;;;11.73;7.27;;;17.80;75.70;;;;;;5029078;28;20323;-82
2022/03/25 12:06:24;;;;;;;13.60;8.80;;;17.70;76.20;;;;;;5028483;28;20227;-82
2022/03/25 12:08:59;;;;;;;10.80;8.40;;;17.80;76.30;;;;;;5028732;28;20332;-81
2022/03/25 12:11:49;;;;;;;14.83;8.57;;;17.70;75.60;;;;;;5024102;28;20271;-81
2022/03/25 12:14:15;;;;;;;15.70;10.50;;;17.90;76.40;;;;;;5027868;28;20208;-81
2022/03/25 12:16:56;;;;;;;16.17;9.97;;;17.90;74.60;;;;;;5028500;28;20275;-81
2022/03/25 12:19:50;;;;;;;13.27;9.07;;;18.00;75.30;;;;;;5025892;28;20287;-81
2022/03/25 12:22:38;;;;;;;16.20;8.90;;;18.10;74.40;;;;;;5030208;28;20556;-81
2022/03/25 12:25:14;;;;;;;13.13;8.57;;;18.10;73.90;;;;;;5026663;28;20193;-82
2022/03/25 12:27:41;;;;;;;12.93;7.77;;;18.30;74.20;;;;;;5026411;28;20188;-81
2022/03/25 12:30:09;;;;;;;9.73;7.13;;;18.50;73.90;;;;;;5028046;28;20224;-81
2022/03/25 12:32:37;;;;;;;12.43;8.37;;;18.50;73.30;;;;;;5028245;28;20205;-82
2022/03/25 12:35:06;;;;;;;12.00;7.97;;;18.50;73.40;;;;;;5028590;28;20201;-82
2022/03/25 12:37:47;;;;;;;12.00;7.63;;;18.60;73.40;;;;;;5028190;28;20208;-82
2022/03/25 12:40:16;;;;;;;10.17;7.30;;;18.60;73.00;;;;;;5028223;28;20203;-82
2022/03/25 12:42:43;;;;;;;12.80;7.30;;;18.80;73.20;;;;;;5028451;28;20259;-81
2022/03/25 12:45:10;;;;;;;12.67;7.77;;;18.70;72.50;;;;;;5027625;28;20247;-82
2022/03/25 12:47:43;;;;;;;12.27;7.93;;;18.80;72.60;;;;;;5027900;28;20262;-81
2022/03/25 12:50:14;;;;;;;10.73;7.40;;;18.90;72.70;;;;;;5027436;28;20237;-81